sensor_id;sensor_type;location;lat;lon;timestamp;P1;durP1;ratioP1;P2;durP2;ratioP2
317;SDS011;146;53.448;10.228;2022-10-23T00:00:21;10.13;;;8.57;;
317;SDS011;146;53.448;10.228;2022-10-23T00:02:50;10.00;;;9.00;;
317;SDS011;146;53.448;10.228;2022-10-23T00:05:18;10.90;;;9.80;;
317;SDS011;146;53.448;10.228;2022-10-23T00:07:49;10.63;;;9.57;;
317;SDS011;146;53.448;10.228;2022-10-23T00:10:16;10.50;;;9.50;;
317;SDS011;146;53.448;10.228;2022-10-23T00:12:44;11.50;;;10.30;;
317;SDS011;146;53.448;10.228;2022-10-23T00:15:12;10.17;;;9.27;;
317;SDS011;146;53.448;10.228;2022-10-23T00:17:39;11.80;;;9.33;;
317;SDS011;146;53.448;10.228;2022-10-23T00:20:07;12.53;;;9.63;;
317;SDS011;146;53.448;10.228;2022-10-23T00:22:34;8.30;;;7.60;;
317;SDS011;146;53.448;10.228;2022-10-23T00:25:03;9.43;;;8.20;;
317;SDS011;146;53.448;10.228;2022-10-23T00:27:31;8.37;;;7.57;;
317;SDS011;146;53.448;10.228;2022-10-23T00:29:58;11.33;;;9.00;;
317;SDS011;146;53.448;10.228;2022-10-23T00:32:25;8.70;;;7.90;;
317;SDS011;146;53.448;10.228;2022-10-23T00:34:55;11.33;;;8.60;;
317;SDS011;146;53.448;10.228;2022-10-23T00:37:21;9.80;;;8.70;;
317;SDS011;146;53.448;10.228;2022-10-23T00:39:48;12.10;;;8.50;;
317;SDS011;146;53.448;10.228;2022-10-23T00:42:17;9.23;;;8.23;;
317;SDS011;146;53.448;10.228;2022-10-23T00:47:39;9.60;;;8.17;;
317;SDS011;146;53.448;10.228;2022-10-23T00:50:06;8.30;;;7.40;;
317;SDS011;146;53.448;10.228;2022-10-23T00:52:34;8.37;;;7.57;;
317;SDS011;146;53.448;10.228;2022-10-23T00:55:06;8.23;;;7.50;;
317;SDS011;146;53.448;10.228;2022-10-23T00:57:34;7.77;;;6.67;;
317;SDS011;146;53.448;10.228;2022-10-23T01:00:02;8.60;;;6.43;;
317;SDS011;146;53.448;10.228;2022-10-23T01:02:30;19.53;;;7.17;;
317;SDS011;146;53.448;10.228;2022-10-23T01:04:57;10.30;;;6.60;;
317;SDS011;146;53.448;10.228;2022-10-23T01:07:26;6.60;;;5.93;;
317;SDS011;146;53.448;10.228;2022-10-23T01:09:58;7.33;;;6.60;;
317;SDS011;146;53.448;10.228;2022-10-23T01:12:32;6.27;;;5.63;;
317;SDS011;146;53.448;10.228;2022-10-23T01:15:06;7.80;;;5.67;;
317;SDS011;146;53.448;10.228;2022-10-23T01:17:40;7.20;;;5.50;;
317;SDS011;146;53.448;10.228;2022-10-23T01:20:18;7.83;;;5.30;;
317;SDS011;146;53.448;10.228;2022-10-23T01:23:00;27.77;;;6.97;;
317;SDS011;146;53.448;10.228;2022-10-23T01:25:43;5.07;;;4.67;;
317;SDS011;146;53.448;10.228;2022-10-23T01:28:24;5.10;;;4.70;;
317;SDS011;146;53.448;10.228;2022-10-23T01:30:55;5.80;;;5.10;;
317;SDS011;146;53.448;10.228;2022-10-23T01:33:24;25.00;;;5.93;;
317;SDS011;146;53.448;10.228;2022-10-23T01:35:55;10.00;;;4.40;;
317;SDS011;146;53.448;10.228;2022-10-23T01:38:28;5.73;;;3.70;;
317;SDS011;146;53.448;10.228;2022-10-23T01:41:01;5.37;;;3.90;;
317;SDS011;146;53.448;10.228;2022-10-23T01:43:35;4.17;;;3.73;;
317;SDS011;146;53.448;10.228;2022-10-23T01:46:07;13.83;;;5.17;;
317;SDS011;146;53.448;10.228;2022-10-23T01:48:38;4.80;;;4.30;;
317;SDS011;146;53.448;10.228;2022-10-23T01:51:07;7.63;;;4.00;;
317;SDS011;146;53.448;10.228;2022-10-23T01:53:37;4.50;;;4.20;;
317;SDS011;146;53.448;10.228;2022-10-23T01:56:06;11.37;;;4.60;;
317;SDS011;146;53.448;10.228;2022-10-23T01:58:36;6.13;;;4.60;;
317;SDS011;146;53.448;10.228;2022-10-23T02:01:04;4.97;;;3.67;;
317;SDS011;146;53.448;10.228;2022-10-23T02:03:32;8.60;;;4.63;;
317;SDS011;146;53.448;10.228;2022-10-23T02:06:02;6.40;;;4.97;;
317;SDS011;146;53.448;10.228;2022-10-23T02:08:29;4.87;;;4.47;;
317;SDS011;146;53.448;10.228;2022-10-23T02:10:57;4.53;;;4.23;;
317;SDS011;146;53.448;10.228;2022-10-23T02:13:31;15.70;;;5.83;;
317;SDS011;146;53.448;10.228;2022-10-23T02:16:05;19.80;;;5.20;;
317;SDS011;146;53.448;10.228;2022-10-23T02:18:42;4.53;;;4.13;;
317;SDS011;146;53.448;10.228;2022-10-23T02:21:17;4.40;;;4.10;;
317;SDS011;146;53.448;10.228;2022-10-23T02:23:53;4.57;;;4.17;;
317;SDS011;146;53.448;10.228;2022-10-23T02:26:25;4.50;;;4.10;;
317;SDS011;146;53.448;10.228;2022-10-23T02:28:55;5.17;;;4.70;;
317;SDS011;146;53.448;10.228;2022-10-23T02:31:28;5.03;;;4.13;;
317;SDS011;146;53.448;10.228;2022-10-23T02:33:54;5.33;;;4.93;;
317;SDS011;146;53.448;10.228;2022-10-23T02:36:21;5.13;;;4.73;;
317;SDS011;146;53.448;10.228;2022-10-23T02:38:48;4.67;;;4.37;;
317;SDS011;146;53.448;10.228;2022-10-23T02:41:16;5.67;;;3.70;;
317;SDS011;146;53.448;10.228;2022-10-23T02:43:54;4.87;;;4.47;;
317;SDS011;146;53.448;10.228;2022-10-23T02:46:30;4.90;;;4.50;;
317;SDS011;146;53.448;10.228;2022-10-23T02:49:10;5.03;;;4.63;;
317;SDS011;146;53.448;10.228;2022-10-23T02:51:44;5.10;;;4.70;;
317;SDS011;146;53.448;10.228;2022-10-23T02:54:20;6.30;;;5.70;;
317;SDS011;146;53.448;10.228;2022-10-23T02:56:58;4.37;;;4.07;;
317;SDS011;146;53.448;10.228;2022-10-23T02:59:32;6.87;;;5.30;;
317;SDS011;146;53.448;10.228;2022-10-23T03:02:05;6.13;;;5.23;;
317;SDS011;146;53.448;10.228;2022-10-23T03:04:35;5.70;;;5.13;;
317;SDS011;146;53.448;10.228;2022-10-23T03:07:09;6.70;;;4.40;;
317;SDS011;146;53.448;10.228;2022-10-23T03:09:36;4.87;;;4.47;;
317;SDS011;146;53.448;10.228;2022-10-23T03:12:03;4.93;;;4.53;;
317;SDS011;146;53.448;10.228;2022-10-23T03:14:29;5.50;;;5.00;;
317;SDS011;146;53.448;10.228;2022-10-23T03:16:56;5.47;;;4.80;;
317;SDS011;146;53.448;10.228;2022-10-23T03:19:24;5.40;;;5.00;;
317;SDS011;146;53.448;10.228;2022-10-23T03:21:51;6.50;;;4.87;;
317;SDS011;146;53.448;10.228;2022-10-23T03:24:18;7.33;;;4.50;;
317;SDS011;146;53.448;10.228;2022-10-23T03:26:45;5.13;;;4.73;;
317;SDS011;146;53.448;10.228;2022-10-23T03:29:12;4.83;;;4.53;;
317;SDS011;146;53.448;10.228;2022-10-23T03:31:38;6.73;;;4.90;;
317;SDS011;146;53.448;10.228;2022-10-23T03:34:05;6.20;;;5.37;;
317;SDS011;146;53.448;10.228;2022-10-23T03:36:36;5.23;;;4.73;;
317;SDS011;146;53.448;10.228;2022-10-23T03:39:03;5.57;;;5.13;;
317;SDS011;146;53.448;10.228;2022-10-23T03:41:30;4.73;;;4.33;;
317;SDS011;146;53.448;10.228;2022-10-23T03:43:57;6.53;;;4.87;;
317;SDS011;146;53.448;10.228;2022-10-23T03:46:24;5.60;;;5.10;;
317;SDS011;146;53.448;10.228;2022-10-23T03:48:51;5.50;;;5.10;;
317;SDS011;146;53.448;10.228;2022-10-23T03:51:18;5.20;;;4.70;;
317;SDS011;146;53.448;10.228;2022-10-23T03:53:46;4.93;;;4.53;;
317;SDS011;146;53.448;10.228;2022-10-23T03:56:13;5.27;;;4.80;;
317;SDS011;146;53.448;10.228;2022-10-23T03:58:41;5.40;;;4.90;;
317;SDS011;146;53.448;10.228;2022-10-23T04:01:10;5.17;;;4.77;;
317;SDS011;146;53.448;10.228;2022-10-23T04:03:36;10.27;;;4.97;;
317;SDS011;146;53.448;10.228;2022-10-23T04:06:03;6.17;;;5.67;;
317;SDS011;146;53.448;10.228;2022-10-23T04:08:30;4.97;;;4.50;;
317;SDS011;146;53.448;10.228;2022-10-23T04:10:58;6.20;;;4.40;;
317;SDS011;146;53.448;10.228;2022-10-23T04:13:25;4.90;;;4.40;;
317;SDS011;146;53.448;10.228;2022-10-23T04:15:52;4.80;;;4.40;;
317;SDS011;146;53.448;10.228;2022-10-23T04:18:19;5.70;;;5.23;;
317;SDS011;146;53.448;10.228;2022-10-23T04:20:46;6.80;;;3.87;;
317;SDS011;146;53.448;10.228;2022-10-23T04:23:14;4.63;;;4.23;;
317;SDS011;146;53.448;10.228;2022-10-23T04:25:40;5.13;;;4.60;;
317;SDS011;146;53.448;10.228;2022-10-23T04:28:08;5.13;;;4.73;;
317;SDS011;146;53.448;10.228;2022-10-23T04:30:35;4.80;;;4.40;;
317;SDS011;146;53.448;10.228;2022-10-23T04:33:02;4.40;;;3.93;;
317;SDS011;146;53.448;10.228;2022-10-23T04:35:29;4.67;;;4.27;;
317;SDS011;146;53.448;10.228;2022-10-23T04:37:55;5.00;;;4.50;;
317;SDS011;146;53.448;10.228;2022-10-23T04:40:22;8.50;;;4.20;;
317;SDS011;146;53.448;10.228;2022-10-23T04:42:49;4.53;;;4.10;;
317;SDS011;146;53.448;10.228;2022-10-23T04:45:17;4.40;;;4.00;;
317;SDS011;146;53.448;10.228;2022-10-23T04:47:44;5.10;;;4.70;;
317;SDS011;146;53.448;10.228;2022-10-23T04:50:11;5.20;;;4.60;;
317;SDS011;146;53.448;10.228;2022-10-23T04:52:37;5.33;;;4.83;;
317;SDS011;146;53.448;10.228;2022-10-23T04:55:05;3.90;;;3.60;;
317;SDS011;146;53.448;10.228;2022-10-23T04:57:33;5.93;;;4.53;;
317;SDS011;146;53.448;10.228;2022-10-23T05:00:00;5.10;;;4.60;;
317;SDS011;146;53.448;10.228;2022-10-23T05:02:28;5.20;;;4.67;;
317;SDS011;146;53.448;10.228;2022-10-23T05:04:55;5.67;;;4.27;;
317;SDS011;146;53.448;10.228;2022-10-23T05:07:21;11.37;;;5.50;;
317;SDS011;146;53.448;10.228;2022-10-23T05:09:48;4.70;;;4.10;;
317;SDS011;146;53.448;10.228;2022-10-23T05:12:15;4.43;;;4.10;;
317;SDS011;146;53.448;10.228;2022-10-23T05:14:42;6.27;;;4.43;;
317;SDS011;146;53.448;10.228;2022-10-23T05:17:10;3.80;;;3.40;;
317;SDS011;146;53.448;10.228;2022-10-23T05:19:41;4.43;;;4.10;;
317;SDS011;146;53.448;10.228;2022-10-23T05:22:12;5.70;;;5.13;;
317;SDS011;146;53.448;10.228;2022-10-23T05:24:40;5.97;;;4.83;;
317;SDS011;146;53.448;10.228;2022-10-23T05:27:06;4.90;;;4.50;;
317;SDS011;146;53.448;10.228;2022-10-23T05:29:33;5.80;;;5.30;;
317;SDS011;146;53.448;10.228;2022-10-23T05:32:01;6.33;;;5.73;;
317;SDS011;146;53.448;10.228;2022-10-23T05:34:30;6.80;;;5.87;;
317;SDS011;146;53.448;10.228;2022-10-23T05:37:01;9.43;;;5.30;;
317;SDS011;146;53.448;10.228;2022-10-23T05:39:29;6.77;;;6.17;;
317;SDS011;146;53.448;10.228;2022-10-23T05:41:57;7.10;;;6.40;;
317;SDS011;146;53.448;10.228;2022-10-23T05:44:24;6.63;;;5.97;;
317;SDS011;146;53.448;10.228;2022-10-23T05:46:51;7.33;;;6.63;;
317;SDS011;146;53.448;10.228;2022-10-23T05:49:18;6.23;;;5.60;;
317;SDS011;146;53.448;10.228;2022-10-23T05:51:45;7.70;;;6.13;;
317;SDS011;146;53.448;10.228;2022-10-23T05:54:15;6.13;;;5.47;;
317;SDS011;146;53.448;10.228;2022-10-23T05:56:42;6.70;;;5.53;;
317;SDS011;146;53.448;10.228;2022-10-23T05:59:09;7.20;;;6.37;;
317;SDS011;146;53.448;10.228;2022-10-23T06:01:36;6.17;;;5.57;;
317;SDS011;146;53.448;10.228;2022-10-23T06:04:03;8.53;;;6.03;;
317;SDS011;146;53.448;10.228;2022-10-23T06:06:30;7.07;;;6.37;;
317;SDS011;146;53.448;10.228;2022-10-23T06:08:57;7.13;;;6.10;;
317;SDS011;146;53.448;10.228;2022-10-23T06:11:25;6.37;;;5.80;;
317;SDS011;146;53.448;10.228;2022-10-23T06:13:51;6.80;;;6.10;;
317;SDS011;146;53.448;10.228;2022-10-23T06:16:19;6.10;;;5.50;;
317;SDS011;146;53.448;10.228;2022-10-23T06:18:48;7.10;;;6.40;;
317;SDS011;146;53.448;10.228;2022-10-23T06:21:15;6.57;;;5.90;;
317;SDS011;146;53.448;10.228;2022-10-23T06:23:42;5.97;;;5.47;;
317;SDS011;146;53.448;10.228;2022-10-23T06:26:11;10.80;;;5.60;;
317;SDS011;146;53.448;10.228;2022-10-23T06:28:41;5.97;;;5.37;;
317;SDS011;146;53.448;10.228;2022-10-23T06:31:09;6.70;;;5.40;;
317;SDS011;146;53.448;10.228;2022-10-23T06:33:37;8.13;;;6.20;;
317;SDS011;146;53.448;10.228;2022-10-23T06:36:04;6.17;;;5.57;;
317;SDS011;146;53.448;10.228;2022-10-23T06:38:34;6.77;;;6.17;;
317;SDS011;146;53.448;10.228;2022-10-23T06:41:04;6.57;;;5.87;;
317;SDS011;146;53.448;10.228;2022-10-23T06:43:32;6.20;;;5.70;;
317;SDS011;146;53.448;10.228;2022-10-23T06:46:00;6.63;;;5.93;;
317;SDS011;146;53.448;10.228;2022-10-23T06:48:27;6.27;;;5.67;;
317;SDS011;146;53.448;10.228;2022-10-23T06:50:54;7.17;;;6.47;;
317;SDS011;146;53.448;10.228;2022-10-23T06:53:21;6.20;;;5.60;;
317;SDS011;146;53.448;10.228;2022-10-23T06:55:48;5.77;;;5.27;;
317;SDS011;146;53.448;10.228;2022-10-23T06:58:15;6.43;;;5.77;;
317;SDS011;146;53.448;10.228;2022-10-23T07:00:42;6.73;;;5.90;;
317;SDS011;146;53.448;10.228;2022-10-23T07:03:12;5.80;;;5.20;;
317;SDS011;146;53.448;10.228;2022-10-23T07:05:39;6.70;;;5.70;;
317;SDS011;146;53.448;10.228;2022-10-23T07:08:08;6.63;;;5.93;;
317;SDS011;146;53.448;10.228;2022-10-23T07:10:36;6.70;;;6.10;;
317;SDS011;146;53.448;10.228;2022-10-23T07:13:03;8.30;;;7.03;;
317;SDS011;146;53.448;10.228;2022-10-23T07:15:29;8.70;;;5.80;;
317;SDS011;146;53.448;10.228;2022-10-23T07:17:56;7.60;;;6.23;;
317;SDS011;146;53.448;10.228;2022-10-23T07:20:24;6.40;;;5.80;;
317;SDS011;146;53.448;10.228;2022-10-23T07:22:51;5.90;;;5.30;;
317;SDS011;146;53.448;10.228;2022-10-23T07:25:19;6.50;;;5.90;;
317;SDS011;146;53.448;10.228;2022-10-23T07:27:46;6.20;;;5.60;;
317;SDS011;146;53.448;10.228;2022-10-23T07:30:13;9.73;;;6.47;;
317;SDS011;146;53.448;10.228;2022-10-23T07:32:40;8.43;;;5.90;;
317;SDS011;146;53.448;10.228;2022-10-23T07:35:08;6.43;;;5.83;;
317;SDS011;146;53.448;10.228;2022-10-23T07:37:37;7.60;;;6.87;;
317;SDS011;146;53.448;10.228;2022-10-23T07:40:04;7.17;;;6.47;;
317;SDS011;146;53.448;10.228;2022-10-23T07:42:32;6.90;;;6.20;;
317;SDS011;146;53.448;10.228;2022-10-23T07:44:59;6.73;;;6.13;;
317;SDS011;146;53.448;10.228;2022-10-23T07:47:28;7.57;;;5.97;;
317;SDS011;146;53.448;10.228;2022-10-23T07:49:56;7.90;;;7.00;;
317;SDS011;146;53.448;10.228;2022-10-23T07:52:23;7.50;;;6.80;;
317;SDS011;146;53.448;10.228;2022-10-23T07:54:51;11.23;;;6.87;;
317;SDS011;146;53.448;10.228;2022-10-23T07:57:18;11.93;;;7.83;;
317;SDS011;146;53.448;10.228;2022-10-23T07:59:45;8.03;;;7.23;;
317;SDS011;146;53.448;10.228;2022-10-23T08:02:13;7.73;;;6.80;;
317;SDS011;146;53.448;10.228;2022-10-23T08:04:40;6.87;;;6.20;;
317;SDS011;146;53.448;10.228;2022-10-23T08:07:07;8.97;;;6.70;;
317;SDS011;146;53.448;10.228;2022-10-23T08:09:33;7.20;;;6.40;;
317;SDS011;146;53.448;10.228;2022-10-23T08:12:03;9.07;;;7.00;;
317;SDS011;146;53.448;10.228;2022-10-23T08:14:30;8.47;;;7.60;;
317;SDS011;146;53.448;10.228;2022-10-23T08:16:57;7.23;;;6.53;;
317;SDS011;146;53.448;10.228;2022-10-23T08:19:24;8.80;;;7.50;;
317;SDS011;146;53.448;10.228;2022-10-23T08:21:50;7.90;;;6.70;;
317;SDS011;146;53.448;10.228;2022-10-23T08:24:18;8.83;;;8.03;;
317;SDS011;146;53.448;10.228;2022-10-23T08:26:47;7.97;;;7.17;;
317;SDS011;146;53.448;10.228;2022-10-23T08:29:15;9.33;;;7.63;;
317;SDS011;146;53.448;10.228;2022-10-23T08:31:44;7.70;;;6.90;;
317;SDS011;146;53.448;10.228;2022-10-23T08:34:11;7.20;;;6.50;;
317;SDS011;146;53.448;10.228;2022-10-23T08:36:38;7.43;;;6.63;;
317;SDS011;146;53.448;10.228;2022-10-23T08:39:05;9.43;;;7.80;;
317;SDS011;146;53.448;10.228;2022-10-23T08:41:32;7.60;;;6.47;;
317;SDS011;146;53.448;10.228;2022-10-23T08:44:02;9.70;;;7.70;;
317;SDS011;146;53.448;10.228;2022-10-23T08:46:36;9.37;;;6.90;;
317;SDS011;146;53.448;10.228;2022-10-23T08:49:10;9.67;;;7.93;;
317;SDS011;146;53.448;10.228;2022-10-23T08:51:54;7.23;;;6.00;;
317;SDS011;146;53.448;10.228;2022-10-23T08:54:24;12.40;;;7.90;;
317;SDS011;146;53.448;10.228;2022-10-23T08:56:56;8.47;;;7.60;;
317;SDS011;146;53.448;10.228;2022-10-23T08:59:27;7.67;;;6.97;;
317;SDS011;146;53.448;10.228;2022-10-23T09:01:59;10.93;;;7.93;;
317;SDS011;146;53.448;10.228;2022-10-23T09:04:29;8.90;;;6.80;;
317;SDS011;146;53.448;10.228;2022-10-23T09:06:58;8.97;;;7.93;;
317;SDS011;146;53.448;10.228;2022-10-23T09:09:38;7.50;;;6.67;;
317;SDS011;146;53.448;10.228;2022-10-23T09:12:15;9.60;;;7.73;;
317;SDS011;146;53.448;10.228;2022-10-23T09:17:40;7.90;;;7.20;;
317;SDS011;146;53.448;10.228;2022-10-23T09:20:11;7.63;;;6.90;;
317;SDS011;146;53.448;10.228;2022-10-23T09:22:42;8.03;;;7.27;;
317;SDS011;146;53.448;10.228;2022-10-23T09:25:14;8.23;;;7.30;;
317;SDS011;146;53.448;10.228;2022-10-23T09:27:44;8.30;;;7.47;;
317;SDS011;146;53.448;10.228;2022-10-23T09:30:23;10.27;;;7.87;;
317;SDS011;146;53.448;10.228;2022-10-23T09:32:52;7.50;;;6.80;;
317;SDS011;146;53.448;10.228;2022-10-23T09:35:20;7.40;;;6.70;;
317;SDS011;146;53.448;10.228;2022-10-23T09:37:47;7.97;;;7.27;;
317;SDS011;146;53.448;10.228;2022-10-23T09:40:18;7.70;;;7.00;;
317;SDS011;146;53.448;10.228;2022-10-23T09:42:53;8.40;;;7.60;;
317;SDS011;146;53.448;10.228;2022-10-23T09:45:23;7.30;;;6.60;;
317;SDS011;146;53.448;10.228;2022-10-23T09:48:03;9.20;;;8.27;;
317;SDS011;146;53.448;10.228;2022-10-23T09:50:36;9.43;;;8.03;;
317;SDS011;146;53.448;10.228;2022-10-23T09:53:03;8.10;;;7.30;;
317;SDS011;146;53.448;10.228;2022-10-23T09:55:29;7.97;;;7.20;;
317;SDS011;146;53.448;10.228;2022-10-23T09:57:56;11.00;;;7.60;;
317;SDS011;146;53.448;10.228;2022-10-23T10:00:23;7.33;;;6.63;;
317;SDS011;146;53.448;10.228;2022-10-23T10:02:56;7.10;;;6.50;;
317;SDS011;146;53.448;10.228;2022-10-23T10:05:26;11.40;;;7.97;;
317;SDS011;146;53.448;10.228;2022-10-23T10:07:55;7.50;;;6.80;;
317;SDS011;146;53.448;10.228;2022-10-23T10:10:25;7.63;;;6.80;;
317;SDS011;146;53.448;10.228;2022-10-23T10:13:00;7.83;;;6.97;;
317;SDS011;146;53.448;10.228;2022-10-23T10:15:35;9.00;;;7.80;;
317;SDS011;146;53.448;10.228;2022-10-23T10:18:10;7.53;;;6.93;;
317;SDS011;146;53.448;10.228;2022-10-23T10:20:50;7.93;;;7.33;;
317;SDS011;146;53.448;10.228;2022-10-23T10:23:33;11.67;;;7.63;;
317;SDS011;146;53.448;10.228;2022-10-23T10:26:11;7.93;;;6.97;;
317;SDS011;146;53.448;10.228;2022-10-23T10:28:49;11.50;;;9.40;;
317;SDS011;146;53.448;10.228;2022-10-23T10:31:25;7.97;;;6.93;;
317;SDS011;146;53.448;10.228;2022-10-23T10:34:05;8.20;;;7.40;;
317;SDS011;146;53.448;10.228;2022-10-23T10:36:41;7.57;;;6.87;;
317;SDS011;146;53.448;10.228;2022-10-23T10:39:16;7.80;;;6.73;;
317;SDS011;146;53.448;10.228;2022-10-23T10:41:54;11.03;;;7.30;;
317;SDS011;146;53.448;10.228;2022-10-23T10:44:47;10.27;;;7.53;;
317;SDS011;146;53.448;10.228;2022-10-23T10:47:24;7.90;;;6.70;;
317;SDS011;146;53.448;10.228;2022-10-23T10:50:03;10.32;;;6.35;;
317;SDS011;146;53.448;10.228;2022-10-23T10:52:38;7.27;;;6.07;;
317;SDS011;146;53.448;10.228;2022-10-23T10:55:13;9.13;;;6.20;;
317;SDS011;146;53.448;10.228;2022-10-23T10:57:48;7.27;;;5.90;;
317;SDS011;146;53.448;10.228;2022-10-23T11:00:26;7.40;;;6.50;;
317;SDS011;146;53.448;10.228;2022-10-23T11:02:56;7.13;;;6.23;;
317;SDS011;146;53.448;10.228;2022-10-23T11:05:28;8.50;;;6.47;;
317;SDS011;146;53.448;10.228;2022-10-23T11:07:59;6.40;;;5.80;;
317;SDS011;146;53.448;10.228;2022-10-23T11:10:31;6.78;;;6.10;;
317;SDS011;146;53.448;10.228;2022-10-23T11:12:58;6.43;;;5.87;;
317;SDS011;146;53.448;10.228;2022-10-23T11:15:26;6.40;;;5.80;;
317;SDS011;146;53.448;10.228;2022-10-23T11:17:57;6.30;;;5.80;;
317;SDS011;146;53.448;10.228;2022-10-23T11:26:31;6.17;;;5.43;;
317;SDS011;146;53.448;10.228;2022-10-23T11:29:17;7.23;;;6.53;;
317;SDS011;146;53.448;10.228;2022-10-23T11:32:22;5.80;;;5.30;;
317;SDS011;146;53.448;10.228;2022-10-23T11:35:05;5.70;;;5.20;;
317;SDS011;146;53.448;10.228;2022-10-23T11:37:42;6.37;;;5.77;;
317;SDS011;146;53.448;10.228;2022-10-23T11:40:18;6.53;;;5.27;;
317;SDS011;146;53.448;10.228;2022-10-23T11:42:49;6.70;;;5.00;;
317;SDS011;146;53.448;10.228;2022-10-23T11:45:26;6.43;;;5.83;;
317;SDS011;146;53.448;10.228;2022-10-23T11:47:56;6.80;;;6.20;;
317;SDS011;146;53.448;10.228;2022-10-23T11:50:25;6.00;;;5.40;;
317;SDS011;146;53.448;10.228;2022-10-23T11:52:57;6.07;;;5.57;;
317;SDS011;146;53.448;10.228;2022-10-23T11:55:36;5.53;;;5.03;;
317;SDS011;146;53.448;10.228;2022-10-23T11:58:15;5.97;;;5.37;;
317;SDS011;146;53.448;10.228;2022-10-23T12:00:50;5.93;;;5.37;;
317;SDS011;146;53.448;10.228;2022-10-23T12:03:21;6.30;;;5.90;;
317;SDS011;146;53.448;10.228;2022-10-23T12:06:00;6.27;;;5.77;;
317;SDS011;146;53.448;10.228;2022-10-23T12:08:30;7.17;;;6.47;;
317;SDS011;146;53.448;10.228;2022-10-23T12:13:53;8.37;;;5.70;;
317;SDS011;146;53.448;10.228;2022-10-23T12:16:20;7.47;;;6.50;;
317;SDS011;146;53.448;10.228;2022-10-23T12:18:51;6.23;;;5.73;;
317;SDS011;146;53.448;10.228;2022-10-23T12:21:33;6.60;;;5.77;;
317;SDS011;146;53.448;10.228;2022-10-23T12:24:09;7.00;;;5.50;;
317;SDS011;146;53.448;10.228;2022-10-23T12:27:04;6.77;;;5.50;;
317;SDS011;146;53.448;10.228;2022-10-23T12:29:56;4.97;;;4.57;;
317;SDS011;146;53.448;10.228;2022-10-23T12:35:13;5.83;;;5.33;;
317;SDS011;146;53.448;10.228;2022-10-23T12:37:54;6.30;;;5.57;;
317;SDS011;146;53.448;10.228;2022-10-23T12:40:38;6.03;;;4.63;;
317;SDS011;146;53.448;10.228;2022-10-23T12:43:19;5.50;;;5.10;;
317;SDS011;146;53.448;10.228;2022-10-23T12:45:51;5.87;;;5.30;;
317;SDS011;146;53.448;10.228;2022-10-23T12:48:21;6.77;;;5.60;;
317;SDS011;146;53.448;10.228;2022-10-23T12:50:49;6.90;;;5.43;;
317;SDS011;146;53.448;10.228;2022-10-23T12:53:18;7.90;;;5.47;;
317;SDS011;146;53.448;10.228;2022-10-23T12:55:46;5.70;;;5.10;;
317;SDS011;146;53.448;10.228;2022-10-23T12:58:19;5.10;;;4.70;;
317;SDS011;146;53.448;10.228;2022-10-23T13:00:50;5.03;;;4.40;;
317;SDS011;146;53.448;10.228;2022-10-23T13:03:19;9.50;;;4.33;;
317;SDS011;146;53.448;10.228;2022-10-23T13:05:48;6.50;;;5.47;;
317;SDS011;146;53.448;10.228;2022-10-23T13:08:16;6.00;;;4.47;;
317;SDS011;146;53.448;10.228;2022-10-23T13:10:44;5.27;;;3.80;;
317;SDS011;146;53.448;10.228;2022-10-23T13:13:11;6.20;;;5.80;;
317;SDS011;146;53.448;10.228;2022-10-23T13:15:42;4.73;;;4.33;;
317;SDS011;146;53.448;10.228;2022-10-23T13:18:11;4.13;;;3.83;;
317;SDS011;146;53.448;10.228;2022-10-23T13:20:40;6.80;;;5.17;;
317;SDS011;146;53.448;10.228;2022-10-23T13:23:09;5.20;;;3.80;;
317;SDS011;146;53.448;10.228;2022-10-23T13:25:41;4.40;;;3.90;;
317;SDS011;146;53.448;10.228;2022-10-23T13:31:00;4.93;;;3.63;;
317;SDS011;146;53.448;10.228;2022-10-23T13:33:33;3.20;;;2.97;;
317;SDS011;146;53.448;10.228;2022-10-23T13:36:03;4.30;;;3.47;;
317;SDS011;146;53.448;10.228;2022-10-23T13:38:32;3.27;;;2.70;;
317;SDS011;146;53.448;10.228;2022-10-23T13:41:01;4.23;;;3.10;;
317;SDS011;146;53.448;10.228;2022-10-23T13:43:30;3.13;;;2.97;;
317;SDS011;146;53.448;10.228;2022-10-23T13:46:00;3.33;;;3.13;;
317;SDS011;146;53.448;10.228;2022-10-23T13:48:27;3.50;;;3.03;;
317;SDS011;146;53.448;10.228;2022-10-23T13:50:56;3.97;;;3.30;;
317;SDS011;146;53.448;10.228;2022-10-23T13:53:31;3.87;;;3.53;;
317;SDS011;146;53.448;10.228;2022-10-23T13:55:58;4.30;;;3.70;;
317;SDS011;146;53.448;10.228;2022-10-23T13:58:24;3.73;;;3.43;;
317;SDS011;146;53.448;10.228;2022-10-23T14:00:51;5.10;;;4.70;;
317;SDS011;146;53.448;10.228;2022-10-23T14:03:20;6.83;;;2.93;;
317;SDS011;146;53.448;10.228;2022-10-23T14:05:48;4.50;;;2.80;;
317;SDS011;146;53.448;10.228;2022-10-23T14:08:15;3.80;;;3.10;;
317;SDS011;146;53.448;10.228;2022-10-23T14:10:42;3.60;;;3.30;;
317;SDS011;146;53.448;10.228;2022-10-23T14:13:08;4.10;;;3.70;;
317;SDS011;146;53.448;10.228;2022-10-23T14:15:35;3.30;;;3.10;;
317;SDS011;146;53.448;10.228;2022-10-23T14:18:02;5.57;;;4.53;;
317;SDS011;146;53.448;10.228;2022-10-23T14:20:30;3.97;;;3.50;;
317;SDS011;146;53.448;10.228;2022-10-23T14:22:57;3.63;;;3.33;;
317;SDS011;146;53.448;10.228;2022-10-23T14:25:24;3.43;;;3.10;;
317;SDS011;146;53.448;10.228;2022-10-23T14:27:50;4.37;;;3.37;;
317;SDS011;146;53.448;10.228;2022-10-23T14:30:17;3.33;;;3.03;;
317;SDS011;146;53.448;10.228;2022-10-23T14:32:44;3.90;;;3.60;;
317;SDS011;146;53.448;10.228;2022-10-23T14:35:11;5.80;;;3.23;;
317;SDS011;146;53.448;10.228;2022-10-23T14:37:39;5.13;;;3.90;;
317;SDS011;146;53.448;10.228;2022-10-23T14:40:06;4.07;;;3.70;;
317;SDS011;146;53.448;10.228;2022-10-23T14:42:33;4.53;;;4.10;;
317;SDS011;146;53.448;10.228;2022-10-23T14:45:00;4.43;;;4.03;;
317;SDS011;146;53.448;10.228;2022-10-23T14:47:27;4.70;;;4.30;;
317;SDS011;146;53.448;10.228;2022-10-23T14:49:54;5.70;;;4.63;;
317;SDS011;146;53.448;10.228;2022-10-23T14:52:21;5.00;;;4.37;;
317;SDS011;146;53.448;10.228;2022-10-23T14:54:50;6.43;;;4.13;;
317;SDS011;146;53.448;10.228;2022-10-23T14:57:18;6.83;;;4.13;;
317;SDS011;146;53.448;10.228;2022-10-23T14:59:46;3.70;;;3.30;;
317;SDS011;146;53.448;10.228;2022-10-23T15:02:14;7.60;;;3.63;;
317;SDS011;146;53.448;10.228;2022-10-23T15:04:41;4.03;;;3.67;;
317;SDS011;146;53.448;10.228;2022-10-23T15:07:08;5.50;;;4.43;;
317;SDS011;146;53.448;10.228;2022-10-23T15:09:38;9.70;;;7.43;;
317;SDS011;146;53.448;10.228;2022-10-23T15:12:08;6.40;;;4.40;;
317;SDS011;146;53.448;10.228;2022-10-23T15:14:35;5.10;;;4.10;;
317;SDS011;146;53.448;10.228;2022-10-23T15:17:02;5.43;;;3.80;;
317;SDS011;146;53.448;10.228;2022-10-23T15:19:29;5.47;;;4.97;;
317;SDS011;146;53.448;10.228;2022-10-23T15:21:56;9.87;;;8.17;;
317;SDS011;146;53.448;10.228;2022-10-23T15:24:22;5.20;;;4.70;;
317;SDS011;146;53.448;10.228;2022-10-23T15:26:51;4.80;;;3.87;;
317;SDS011;146;53.448;10.228;2022-10-23T15:29:19;4.20;;;3.47;;
317;SDS011;146;53.448;10.228;2022-10-23T15:31:48;3.63;;;3.33;;
317;SDS011;146;53.448;10.228;2022-10-23T15:34:19;4.37;;;3.93;;
317;SDS011;146;53.448;10.228;2022-10-23T15:36:49;4.70;;;4.20;;
317;SDS011;146;53.448;10.228;2022-10-23T15:39:25;4.77;;;4.37;;
317;SDS011;146;53.448;10.228;2022-10-23T15:41:57;7.57;;;4.63;;
317;SDS011;146;53.448;10.228;2022-10-23T15:44:27;4.40;;;4.10;;
317;SDS011;146;53.448;10.228;2022-10-23T15:46:55;5.30;;;4.80;;
317;SDS011;146;53.448;10.228;2022-10-23T15:49:23;4.87;;;4.47;;
317;SDS011;146;53.448;10.228;2022-10-23T15:51:51;4.80;;;4.40;;
317;SDS011;146;53.448;10.228;2022-10-23T15:54:18;4.83;;;3.87;;
317;SDS011;146;53.448;10.228;2022-10-23T15:56:46;4.83;;;4.43;;
317;SDS011;146;53.448;10.228;2022-10-23T15:59:15;5.97;;;4.93;;
317;SDS011;146;53.448;10.228;2022-10-23T16:01:44;5.30;;;4.53;;
317;SDS011;146;53.448;10.228;2022-10-23T16:04:11;5.13;;;4.70;;
317;SDS011;146;53.448;10.228;2022-10-23T16:06:40;5.73;;;5.23;;